createdAt,value
2017-09-16T00:00:27.537Z,97.28
2017-09-16T00:00:55.531Z,97.19
2017-09-16T00:01:23.621Z,97.19
2017-09-16T00:01:51.694Z,97.28
2017-09-16T00:02:19.626Z,97.57
2017-09-16T00:02:47.542Z,97.19
2017-09-16T00:03:15.772Z,96.99
2017-09-16T00:03:43.568Z,97.19
2017-09-16T00:04:11.695Z,97.76
2017-09-16T00:04:39.588Z,97.19
2017-09-16T00:05:07.362Z,97.28
2017-09-16T00:05:35.490Z,97.57
2017-09-16T00:06:03.582Z,97.66
2017-09-16T00:06:31.658Z,96.99
2017-09-16T00:06:59.775Z,97.09
2017-09-16T00:07:27.722Z,97.24
2017-09-16T00:07:55.909Z,97.24
2017-09-16T00:08:23.911Z,97.19
2017-09-16T00:08:51.922Z,97.04
2017-09-16T00:09:19.972Z,97.09
2017-09-16T00:09:47.901Z,97.24
2017-09-16T00:10:15.784Z,96.94
2017-09-16T00:10:43.702Z,96.85
2017-09-16T00:11:11.604Z,97.24
2017-09-16T00:11:39.727Z,97.24
2017-09-16T00:12:07.762Z,96.94
2017-09-16T00:12:35.846Z,97.24
2017-09-16T00:13:03.851Z,97.14
2017-09-16T00:13:31.764Z,96.75
2017-09-16T00:13:59.768Z,96.66
2017-09-16T00:14:27.848Z,96.66
2017-09-16T00:14:55.861Z,96.37
2017-09-16T00:15:23.848Z,96.47
2017-09-16T00:15:51.946Z,96.47
2017-09-16T00:16:20.056Z,96.75
2017-09-16T00:16:48.048Z,96.66
2017-09-16T00:17:15.952Z,96.37
2017-09-16T00:17:44.034Z,96.94
2017-09-16T00:18:12.166Z,96.47
2017-09-16T00:18:40.242Z,96.66
2017-09-16T00:19:08.339Z,96.85
2017-09-16T00:19:36.340Z,96.85
2017-09-16T00:20:04.230Z,97.04
2017-09-16T00:20:32.245Z,96.85
2017-09-16T00:21:00.155Z,96.94
2017-09-16T00:21:28.148Z,97.14
2017-09-16T00:21:56.180Z,97.14
2017-09-16T00:22:24.318Z,97.14
2017-09-16T00:22:52.214Z,97.04
2017-09-16T00:23:20.332Z,97.14
2017-09-16T00:23:48.329Z,97.24
2017-09-16T00:24:16.331Z,97.04
2017-09-16T00:24:44.240Z,97.04
2017-09-16T00:25:12.236Z,97.04
2017-09-16T00:25:40.233Z,97.04
2017-09-16T00:26:08.350Z,97.24
2017-09-16T00:26:36.432Z,97.04
2017-09-16T00:27:04.339Z,97.71
2017-09-16T00:27:32.429Z,97.81
2017-09-16T00:28:00.434Z,97.42
2017-09-16T00:28:28.632Z,97.52
2017-09-16T00:28:56.738Z,97.62
2017-09-16T00:29:24.757Z,97.24
2017-09-16T00:29:52.770Z,97.24
2017-09-16T00:30:20.867Z,97.81
2017-09-16T00:30:48.734Z,97.71
2017-09-16T00:31:16.713Z,97.62
2017-09-16T00:31:44.727Z,98.19
2017-09-16T00:32:12.808Z,97.91
2017-09-16T00:32:40.893Z,98.24
2017-09-16T00:33:08.993Z,98.91
2017-09-16T00:33:37.102Z,98.86
2017-09-16T00:34:05.241Z,98.96
2017-09-16T00:34:33.246Z,98.82
2017-09-16T00:35:01.159Z,99.3
2017-09-16T00:35:29.274Z,99.58
2017-09-16T00:35:57.377Z,99.87
2017-09-16T00:36:25.497Z,99.97
2017-09-16T00:36:53.400Z,99.99
2017-09-16T00:37:21.278Z,99.99
2017-09-16T00:37:49.408Z,99.99
2017-09-16T00:38:17.644Z,99.99
2017-09-16T00:38:45.559Z,99.99
2017-09-16T00:39:13.599Z,99.99
2017-09-16T00:39:41.409Z,99.99
2017-09-16T00:40:09.405Z,99.99
2017-09-16T00:40:37.465Z,99.99
2017-09-16T00:41:05.563Z,99.99
2017-09-16T00:41:33.616Z,99.99
2017-09-16T00:42:01.578Z,99.99
2017-09-16T00:42:29.688Z,99.99
2017-09-16T00:42:57.716Z,99.99
2017-09-16T00:43:25.838Z,99.99
2017-09-16T00:43:53.960Z,99.99
2017-09-16T00:44:22.071Z,99.99
2017-09-16T00:44:50.170Z,99.99
2017-09-16T00:45:17.978Z,99.99
2017-09-16T00:45:46.001Z,99.99
2017-09-16T00:46:14.116Z,99.99
2017-09-16T00:46:42.120Z,99.99
2017-09-16T00:47:10.123Z,99.99
2017-09-16T00:47:38.170Z,99.99
2017-09-16T00:48:06.255Z,99.99
2017-09-16T00:48:34.339Z,99.99
2017-09-16T00:49:02.037Z,99.99
2017-09-16T00:49:30.025Z,99.99
2017-09-16T00:49:58.055Z,99.99
2017-09-16T00:50:26.046Z,99.99
2017-09-16T00:50:53.935Z,99.99
2017-09-16T00:51:21.927Z,99.99
2017-09-16T00:51:49.949Z,99.99
2017-09-16T00:52:17.919Z,99.99
2017-09-16T00:52:45.836Z,99.99
2017-09-16T00:53:13.715Z,99.99
2017-09-16T00:53:41.836Z,99.99
2017-09-16T00:54:09.743Z,99.99
2017-09-16T00:54:37.830Z,99.99
2017-09-16T00:55:05.838Z,99.99
2017-09-16T00:55:33.830Z,99.99
2017-09-16T00:56:01.917Z,99.99
2017-09-16T00:56:29.811Z,99.99
2017-09-16T00:56:57.417Z,99.99
2017-09-16T00:57:25.416Z,99.99
2017-09-16T00:57:53.323Z,99.99
2017-09-16T00:58:21.305Z,99.99
2017-09-16T00:58:49.373Z,99.99
2017-09-16T00:59:17.053Z,99.99
2017-09-16T00:59:45.177Z,99.99
2017-09-16T01:00:13.001Z,99.99
2017-09-16T01:00:41.030Z,99.99
2017-09-16T01:01:08.908Z,99.99
2017-09-16T01:01:36.902Z,99.99
2017-09-16T01:02:04.806Z,99.99
2017-09-16T01:02:32.887Z,99.99
2017-09-16T01:03:00.690Z,99.99
2017-09-16T01:03:28.653Z,99.99
2017-09-16T01:03:56.788Z,99.99
2017-09-16T01:04:24.724Z,99.99
2017-09-16T01:04:52.715Z,99.99
2017-09-16T01:05:20.630Z,99.99
2017-09-16T01:05:48.725Z,99.99
2017-09-16T01:06:16.861Z,99.99
2017-09-16T01:06:44.734Z,99.99
2017-09-16T01:07:12.727Z,99.99
2017-09-16T01:07:40.650Z,99.99
2017-09-16T01:08:08.656Z,99.99
2017-09-16T01:08:36.450Z,99.99
2017-09-16T01:09:04.468Z,99.99
2017-09-16T01:09:32.595Z,99.99
2017-09-16T01:10:00.590Z,99.99
2017-09-16T01:10:28.732Z,99.99
2017-09-16T01:10:56.846Z,99.99
2017-09-16T01:11:24.969Z,99.99
2017-09-16T01:11:52.962Z,99.99
2017-09-16T01:12:20.883Z,99.99
2017-09-16T01:12:48.911Z,99.99
2017-09-16T01:13:16.806Z,99.99
2017-09-16T01:13:44.795Z,99.99
2017-09-16T01:14:12.905Z,99.99
2017-09-16T01:14:41.025Z,99.99
2017-09-16T01:15:09.005Z,99.99
2017-09-16T01:15:36.930Z,99.99
2017-09-16T01:16:04.907Z,99.99
2017-09-16T01:16:32.802Z,99.99
2017-09-16T01:17:00.693Z,99.99
2017-09-16T01:17:28.587Z,99.99
2017-09-16T01:17:56.711Z,99.99
2017-09-16T01:18:24.823Z,99.99
2017-09-16T01:18:53.060Z,99.99
2017-09-16T01:19:21.128Z,99.99
2017-09-16T01:19:49.020Z,99.99
2017-09-16T01:20:17.018Z,99.99
2017-09-16T01:20:44.857Z,99.99
2017-09-16T01:21:12.946Z,99.99
2017-09-16T01:21:41.056Z,99.99
2017-09-16T01:22:08.960Z,99.99
2017-09-16T01:22:37.068Z,99.99
2017-09-16T01:23:05.086Z,99.99
2017-09-16T01:23:33.306Z,99.99
2017-09-16T01:24:01.440Z,99.99
2017-09-16T01:24:29.391Z,99.99
2017-09-16T01:24:57.303Z,99.99
2017-09-16T01:25:25.408Z,99.99
2017-09-16T01:25:53.370Z,99.99
2017-09-16T01:26:21.497Z,99.99
2017-09-16T01:26:49.522Z,99.99
2017-09-16T01:27:17.660Z,99.99
2017-09-16T01:27:45.797Z,99.99
2017-09-16T01:28:13.799Z,99.99
2017-09-16T01:28:41.885Z,99.99
2017-09-16T01:29:09.758Z,99.99
2017-09-16T01:29:37.753Z,99.99
2017-09-16T01:30:05.813Z,99.99
2017-09-16T01:30:33.787Z,99.99
2017-09-16T01:31:01.792Z,99.99
2017-09-16T01:31:29.789Z,99.99
2017-09-16T01:31:57.793Z,99.99
2017-09-16T01:32:25.914Z,99.99
2017-09-16T01:32:53.911Z,99.99
2017-09-16T01:33:21.927Z,99.99
2017-09-16T01:33:50.120Z,99.99
2017-09-16T01:34:18.140Z,99.99
2017-09-16T01:34:46.236Z,99.99
2017-09-16T01:35:14.342Z,99.99
2017-09-16T01:35:42.375Z,99.99
2017-09-16T01:36:10.276Z,99.99
2017-09-16T01:36:38.393Z,99.99
2017-09-16T01:37:06.436Z,99.99
2017-09-16T01:37:34.528Z,99.99
2017-09-16T01:38:02.652Z,99.99
2017-09-16T01:38:30.771Z,99.99
2017-09-16T01:38:58.860Z,99.99
2017-09-16T01:39:26.830Z,99.99
2017-09-16T01:39:54.842Z,99.99
2017-09-16T01:40:22.645Z,99.99
2017-09-16T01:40:50.750Z,99.99
2017-09-16T01:41:18.669Z,99.99
2017-09-16T01:41:46.631Z,99.99
2017-09-16T01:42:14.740Z,99.99
2017-09-16T01:42:42.869Z,99.99
2017-09-16T01:43:10.858Z,99.99
2017-09-16T01:43:38.666Z,99.99
2017-09-16T01:44:06.854Z,99.99
2017-09-16T01:44:34.755Z,99.82
2017-09-16T01:45:02.622Z,99.92
2017-09-16T01:45:30.739Z,99.92
2017-09-16T01:45:58.662Z,99.82
2017-09-16T01:46:26.520Z,99.92
2017-09-16T01:46:54.600Z,99.97
2017-09-16T01:47:22.537Z,99.99
2017-09-16T01:47:50.643Z,99.99
2017-09-16T01:48:18.636Z,99.99
2017-09-16T01:48:46.834Z,99.49
2017-09-16T01:49:14.929Z,99.68
2017-09-16T01:49:43.028Z,99.44
2017-09-16T01:50:11.040Z,99.68
2017-09-16T01:50:38.867Z,99.4
2017-09-16T01:51:06.992Z,99.3
2017-09-16T01:51:35.100Z,99.68
2017-09-16T01:52:02.936Z,99.58
2017-09-16T01:52:30.860Z,99.2
2017-09-16T01:52:58.952Z,99.3
2017-09-16T01:53:27.052Z,99.1
2017-09-16T01:53:55.038Z,98.91
2017-09-16T01:54:23.129Z,98.91
2017-09-16T01:54:51.212Z,99.2
2017-09-16T01:55:19.031Z,98.82
2017-09-16T01:55:47.142Z,98.82
2017-09-16T01:56:15.148Z,98.63
2017-09-16T01:56:43.066Z,98.91
2017-09-16T01:57:11.061Z,98.34
2017-09-16T01:57:39.046Z,98.34
2017-09-16T01:58:07.036Z,98.91
2017-09-16T01:58:35.047Z,99.1
2017-09-16T01:59:03.160Z,99.01
2017-09-16T01:59:31.070Z,98.63
2017-09-16T01:59:58.780Z,98.63
2017-09-16T02:00:26.572Z,99.1
2017-09-16T02:00:54.583Z,98.91
2017-09-16T02:01:22.383Z,98.91
2017-09-16T02:01:50.387Z,99.1
2017-09-16T02:02:18.505Z,99.15
2017-09-16T02:02:46.416Z,99.44
2017-09-16T02:03:14.302Z,99.73
2017-09-16T02:03:42.380Z,99.54
2017-09-16T02:04:10.468Z,99.68
2017-09-16T02:04:38.568Z,99.4
2017-09-16T02:05:06.587Z,99.2
2017-09-16T02:05:34.689Z,99.58
2017-09-16T02:06:02.648Z,99.4
2017-09-16T02:06:30.674Z,99.2
2017-09-16T02:06:58.757Z,99.01
2017-09-16T02:07:26.679Z,99.2
2017-09-16T02:07:54.584Z,99.34
2017-09-16T02:08:22.618Z,99.49
2017-09-16T02:08:50.554Z,99.49
2017-09-16T02:09:18.754Z,99.2
2017-09-16T02:09:46.661Z,99.58
2017-09-16T02:10:14.564Z,99.4
2017-09-16T02:10:42.471Z,99.15
2017-09-16T02:11:10.489Z,99.4
2017-09-16T02:11:38.563Z,99.15
2017-09-16T02:12:06.512Z,99.4
2017-09-16T02:12:34.626Z,99.4
2017-09-16T02:13:02.750Z,99.34
2017-09-16T02:13:30.674Z,99.49
2017-09-16T02:13:58.712Z,99.58
2017-09-16T02:14:26.725Z,99.34
2017-09-16T02:14:54.698Z,99.99
2017-09-16T02:15:22.511Z,99.63
2017-09-16T02:15:50.508Z,99.99
2017-09-16T02:16:18.426Z,99.99
2017-09-16T02:16:46.523Z,99.99
2017-09-16T02:17:14.417Z,99.99
2017-09-16T02:17:42.445Z,99.97
2017-09-16T02:18:10.521Z,99.97
2017-09-16T02:18:38.651Z,99.97
2017-09-16T02:19:06.681Z,99.73
2017-09-16T02:19:34.685Z,99.99
2017-09-16T02:20:02.800Z,99.99
2017-09-16T02:20:30.688Z,99.99
2017-09-16T02:20:58.626Z,99.99
2017-09-16T02:21:26.559Z,99.99
2017-09-16T02:21:54.590Z,99.99
2017-09-16T02:22:22.614Z,99.99
2017-09-16T02:22:50.528Z,99.99
2017-09-16T02:23:18.536Z,99.99
2017-09-16T02:23:46.421Z,99.99
2017-09-16T02:24:14.338Z,99.99
2017-09-16T02:24:42.322Z,99.99
2017-09-16T02:25:10.438Z,99.99
2017-09-16T02:25:38.549Z,99.99
2017-09-16T02:26:06.453Z,99.99
2017-09-16T02:26:34.242Z,99.99
2017-09-16T02:27:02.371Z,99.99
2017-09-16T02:27:30.373Z,99.99
2017-09-16T02:27:58.278Z,99.99
2017-09-16T02:28:26.392Z,99.99
2017-09-16T02:28:54.479Z,99.99
2017-09-16T02:29:22.615Z,99.99
2017-09-16T02:29:50.716Z,99.99
2017-09-16T02:30:18.811Z,99.99
2017-09-16T02:30:46.921Z,99.99
2017-09-16T02:31:15.063Z,99.99
2017-09-16T02:31:42.961Z,99.99
2017-09-16T02:32:11.044Z,99.99
2017-09-16T02:32:38.970Z,99.99
2017-09-16T02:33:07.067Z,99.99
2017-09-16T02:33:34.957Z,99.99
2017-09-16T02:34:02.904Z,99.99
2017-09-16T02:34:30.914Z,99.99
2017-09-16T02:34:58.928Z,99.99
2017-09-16T02:35:27.031Z,99.99
2017-09-16T02:35:54.964Z,99.99
2017-09-16T02:36:22.889Z,99.99
2017-09-16T02:36:50.777Z,99.99
2017-09-16T02:37:18.792Z,99.99
2017-09-16T02:37:46.882Z,99.99
2017-09-16T02:38:14.672Z,99.99
2017-09-16T02:38:42.673Z,99.99
2017-09-16T02:39:10.869Z,99.99
2017-09-16T02:39:38.878Z,99.99
2017-09-16T02:40:06.916Z,99.99
2017-09-16T02:40:34.923Z,99.99
2017-09-16T02:41:03.057Z,99.99
2017-09-16T02:41:30.969Z,99.99
2017-09-16T02:41:59.075Z,99.99
2017-09-16T02:42:26.858Z,99.99
2017-09-16T02:42:54.779Z,99.99
2017-09-16T02:43:22.870Z,99.99
2017-09-16T02:43:50.945Z,99.99
2017-09-16T02:44:19.091Z,99.99
2017-09-16T02:44:47.231Z,99.99
2017-09-16T02:45:15.128Z,99.99
2017-09-16T02:45:43.237Z,99.99
2017-09-16T02:46:11.132Z,99.99
2017-09-16T02:46:39.006Z,99.99
2017-09-16T02:47:07.136Z,99.99
2017-09-16T02:47:35.158Z,99.99
2017-09-16T02:48:03.185Z,99.99
2017-09-16T02:48:31.190Z,99.99
2017-09-16T02:48:59.227Z,99.99
2017-09-16T02:49:27.313Z,99.99
2017-09-16T02:49:55.420Z,99.99
2017-09-16T02:50:23.410Z,99.99
2017-09-16T02:50:51.519Z,99.99
2017-09-16T02:51:19.408Z,99.99
2017-09-16T02:51:47.397Z,99.99
2017-09-16T02:52:15.370Z,99.99
2017-09-16T02:52:43.394Z,99.99
2017-09-16T02:53:11.386Z,99.99
2017-09-16T02:53:39.296Z,99.97
2017-09-16T02:54:07.307Z,99.99
2017-09-16T02:54:35.504Z,99.99
2017-09-16T02:55:03.419Z,99.99
2017-09-16T02:55:31.409Z,99.99
2017-09-16T02:55:59.517Z,99.99
2017-09-16T02:56:27.629Z,99.99
2017-09-16T02:56:55.539Z,99.87
2017-09-16T02:57:23.556Z,99.87
2017-09-16T02:57:51.454Z,99.99
2017-09-16T02:58:19.348Z,99.97
2017-09-16T02:58:47.241Z,99.97
2017-09-16T02:59:15.086Z,99.92
2017-09-16T02:59:43.102Z,99.92
2017-09-16T03:00:11.197Z,99.82
2017-09-16T03:00:39.159Z,99.99
2017-09-16T03:01:07.278Z,99.99
2017-09-16T03:01:35.232Z,99.82
2017-09-16T03:02:03.220Z,99.92
2017-09-16T03:02:31.117Z,99.99
2017-09-16T03:02:58.936Z,99.87
2017-09-16T03:03:26.964Z,99.99
2017-09-16T03:03:55.023Z,99.99
2017-09-16T03:04:23.142Z,99.97
2017-09-16T03:04:51.173Z,99.82
2017-09-16T03:05:19.200Z,99.68
2017-09-16T03:05:47.102Z,99.99
2017-09-16T03:06:15.110Z,99.99
2017-09-16T03:06:43.206Z,99.99
2017-09-16T03:07:11.229Z,99.99
2017-09-16T03:07:39.172Z,99.99
2017-09-16T03:08:07.289Z,99.87
2017-09-16T03:08:35.310Z,99.99
2017-09-16T03:09:03.031Z,99.99
2017-09-16T03:09:31.283Z,99.99
2017-09-16T03:09:59.372Z,99.99
2017-09-16T03:10:27.473Z,99.78
2017-09-16T03:10:55.586Z,99.99
2017-09-16T03:11:23.483Z,99.87
2017-09-16T03:11:51.589Z,99.87
2017-09-16T03:12:19.598Z,99.99
2017-09-16T03:12:47.547Z,99.99
2017-09-16T03:13:15.449Z,99.99
2017-09-16T03:13:43.563Z,99.99
2017-09-16T03:14:11.747Z,99.99
2017-09-16T03:14:39.695Z,99.99
2017-09-16T03:15:07.804Z,99.99
2017-09-16T03:15:35.826Z,99.99
2017-09-16T03:16:03.869Z,99.99
2017-09-16T03:16:31.879Z,99.68
2017-09-16T03:16:59.919Z,99.99
2017-09-16T03:17:28.006Z,99.99
2017-09-16T03:17:55.979Z,99.97
2017-09-16T03:18:24.012Z,99.97
2017-09-16T03:18:52.145Z,99.97
2017-09-16T03:19:20.163Z,99.97
2017-09-16T03:19:48.287Z,99.49
2017-09-16T03:20:16.403Z,99.4
2017-09-16T03:20:44.443Z,99.68
2017-09-16T03:21:12.439Z,99.68
2017-09-16T03:21:40.459Z,99.68
2017-09-16T03:22:08.443Z,99.78
2017-09-16T03:22:36.473Z,99.58
2017-09-16T03:23:04.493Z,99.58
2017-09-16T03:23:32.508Z,99.68
2017-09-16T03:24:00.510Z,99.68
2017-09-16T03:24:28.528Z,99.68
2017-09-16T03:24:56.739Z,99.78
2017-09-16T03:25:24.862Z,99.68
2017-09-16T03:25:52.887Z,99.58
2017-09-16T03:26:20.845Z,99.58
2017-09-16T03:26:48.856Z,99.78
2017-09-16T03:27:16.854Z,99.49
2017-09-16T03:27:44.890Z,99.58
2017-09-16T03:28:12.994Z,99.58
2017-09-16T03:28:40.809Z,99.68
2017-09-16T03:29:08.721Z,99.78
2017-09-16T03:29:36.911Z,99.4
2017-09-16T03:30:04.924Z,99.49
2017-09-16T03:30:33.057Z,99.2
2017-09-16T03:31:01.072Z,99.4
2017-09-16T03:31:29.080Z,99.78
2017-09-16T03:31:57.082Z,99.68
2017-09-16T03:32:25.086Z,99.87
2017-09-16T03:32:53.017Z,99.58
2017-09-16T03:33:21.129Z,99.68
2017-09-16T03:33:49.267Z,99.68
2017-09-16T03:34:17.218Z,99.68
2017-09-16T03:34:45.578Z,99.68
2017-09-16T03:35:13.582Z,99.1
2017-09-16T03:35:41.681Z,99.2
2017-09-16T03:36:09.601Z,99.4
2017-09-16T03:36:37.599Z,99.3
2017-09-16T03:37:05.509Z,99.99
2017-09-16T03:37:33.514Z,99.97
2017-09-16T03:38:01.394Z,99.92
2017-09-16T03:38:29.399Z,99.99
2017-09-16T03:38:57.437Z,99.82
2017-09-16T03:39:25.329Z,99.82
2017-09-16T03:39:53.446Z,99.92
2017-09-16T03:40:21.472Z,99.73
2017-09-16T03:40:49.494Z,99.99
2017-09-16T03:41:17.477Z,99.99
2017-09-16T03:41:45.518Z,99.99
2017-09-16T03:42:13.628Z,99.99
2017-09-16T03:42:41.750Z,99.99
2017-09-16T03:43:09.626Z,99.99
2017-09-16T03:43:37.712Z,99.73
2017-09-16T03:44:05.742Z,99.63
2017-09-16T03:44:33.736Z,99.99
2017-09-16T03:45:01.860Z,99.99
2017-09-16T03:45:29.773Z,99.99
2017-09-16T03:45:57.853Z,99.99
2017-09-16T03:46:25.971Z,99.99
2017-09-16T03:46:53.877Z,99.99
2017-09-16T03:47:21.930Z,99.99
2017-09-16T03:47:49.866Z,99.99
2017-09-16T03:48:17.841Z,99.99
2017-09-16T03:48:45.911Z,99.99
2017-09-16T03:49:13.846Z,99.99
2017-09-16T03:49:41.753Z,99.99
2017-09-16T03:50:09.636Z,99.99
2017-09-16T03:50:37.647Z,99.99
2017-09-16T03:51:05.778Z,99.99
2017-09-16T03:51:33.790Z,99.99
2017-09-16T03:52:01.900Z,99.99
2017-09-16T03:52:30.037Z,99.99
2017-09-16T03:52:57.923Z,99.99
2017-09-16T03:53:25.939Z,99.99
2017-09-16T03:53:53.994Z,99.99
2017-09-16T03:54:21.810Z,99.99
2017-09-16T03:54:49.896Z,99.99
2017-09-16T03:55:17.814Z,99.99
2017-09-16T03:55:45.895Z,99.99
2017-09-16T03:56:13.890Z,99.99
2017-09-16T03:56:41.915Z,99.99
2017-09-16T03:57:10.031Z,99.99
2017-09-16T03:57:38.027Z,99.99
2017-09-16T03:58:06.065Z,99.99
2017-09-16T03:58:34.145Z,99.99
2017-09-16T03:59:01.925Z,99.99
2017-09-16T03:59:29.941Z,99.99
2017-09-16T03:59:58.071Z,99.99
2017-09-16T04:00:26.161Z,99.99
2017-09-16T04:00:54.163Z,99.99
2017-09-16T04:01:22.097Z,99.99
2017-09-16T04:01:49.911Z,99.99
2017-09-16T04:02:18.032Z,99.99
2017-09-16T04:02:45.928Z,99.99
2017-09-16T04:03:13.927Z,99.99
2017-09-16T04:03:41.946Z,99.99
2017-09-16T04:04:10.026Z,99.99
2017-09-16T04:04:38.085Z,99.99
2017-09-16T04:05:06.172Z,99.99
2017-09-16T04:05:34.057Z,99.99
2017-09-16T04:06:02.174Z,99.99
2017-09-16T04:06:30.198Z,99.99
2017-09-16T04:06:58.203Z,99.99
2017-09-16T04:07:26.303Z,99.99
2017-09-16T04:07:54.420Z,99.99
2017-09-16T04:08:22.445Z,99.99
2017-09-16T04:08:50.574Z,99.99
2017-09-16T04:09:18.445Z,99.99
2017-09-16T04:09:46.390Z,99.99
2017-09-16T04:10:14.483Z,99.99
2017-09-16T04:10:42.483Z,99.99
2017-09-16T04:11:10.373Z,99.99
2017-09-16T04:11:38.453Z,99.99
2017-09-16T04:12:06.428Z,99.99
2017-09-16T04:12:34.534Z,99.99
2017-09-16T04:13:02.518Z,99.99
2017-09-16T04:13:30.507Z,99.99
2017-09-16T04:13:58.409Z,99.99
2017-09-16T04:14:26.426Z,99.99
2017-09-16T04:14:54.443Z,99.99
2017-09-16T04:15:22.642Z,99.99
2017-09-16T04:15:50.765Z,99.99
2017-09-16T04:16:18.749Z,99.99
2017-09-16T04:16:46.886Z,99.99
2017-09-16T04:17:14.780Z,99.99
2017-09-16T04:17:42.772Z,99.99
2017-09-16T04:18:10.871Z,99.99
2017-09-16T04:18:38.889Z,99.99
2017-09-16T04:19:06.902Z,99.99
2017-09-16T04:19:34.916Z,99.99
2017-09-16T04:20:02.996Z,99.99
2017-09-16T04:20:31.095Z,99.99
2017-09-16T04:20:59.201Z,99.99
2017-09-16T04:21:27.216Z,99.99
2017-09-16T04:21:55.301Z,99.99
2017-09-16T04:22:23.392Z,99.99
2017-09-16T04:22:51.398Z,99.99
2017-09-16T04:23:19.411Z,99.99
2017-09-16T04:23:47.504Z,99.99
2017-09-16T04:24:15.587Z,99.99
2017-09-16T04:24:43.699Z,99.99
2017-09-16T04:25:11.816Z,99.99
2017-09-16T04:25:39.899Z,99.99
2017-09-16T04:26:07.938Z,99.99
2017-09-16T04:26:35.965Z,99.99
2017-09-16T04:27:04.054Z,99.99
2017-09-16T04:27:32.149Z,99.99
2017-09-16T04:28:00.267Z,99.99
2017-09-16T04:28:28.385Z,99.99
2017-09-16T04:28:56.477Z,99.99
2017-09-16T04:29:24.470Z,99.99
2017-09-16T04:29:52.376Z,99.99
2017-09-16T04:30:20.555Z,99.99
2017-09-16T04:30:48.599Z,99.99
2017-09-16T04:31:16.617Z,99.99
2017-09-16T04:31:44.693Z,99.99
2017-09-16T04:32:12.597Z,99.99
2017-09-16T04:32:40.699Z,99.99
2017-09-16T04:33:08.828Z,99.99
2017-09-16T04:33:36.738Z,99.99
2017-09-16T04:34:04.866Z,99.99
2017-09-16T04:34:32.770Z,99.99
2017-09-16T04:35:00.679Z,99.99
2017-09-16T04:35:28.798Z,99.99
2017-09-16T04:35:56.820Z,99.99
2017-09-16T04:36:24.806Z,99.99
2017-09-16T04:36:52.923Z,99.99
2017-09-16T04:37:20.835Z,99.99
2017-09-16T04:37:48.934Z,99.99
2017-09-16T04:38:16.946Z,99.99
2017-09-16T04:38:45.056Z,99.99
2017-09-16T04:39:13.084Z,99.99
2017-09-16T04:39:41.006Z,99.99
2017-09-16T04:40:09.112Z,99.99
2017-09-16T04:40:37.293Z,99.99
2017-09-16T04:41:05.192Z,99.99
2017-09-16T04:41:33.143Z,99.99
2017-09-16T04:42:01.281Z,99.99
2017-09-16T04:42:29.371Z,99.99
2017-09-16T04:42:57.469Z,99.99
2017-09-16T04:43:25.476Z,99.99
2017-09-16T04:43:53.603Z,99.99
2017-09-16T04:44:21.616Z,99.99
2017-09-16T04:44:49.571Z,99.99
2017-09-16T04:45:17.792Z,99.99
2017-09-16T04:45:45.770Z,99.99
2017-09-16T04:46:13.616Z,99.99
2017-09-16T04:46:41.699Z,99.99
2017-09-16T04:47:09.837Z,99.99
2017-09-16T04:47:37.862Z,99.99
2017-09-16T04:48:05.773Z,99.99
2017-09-16T04:48:33.790Z,99.99
2017-09-16T04:49:01.630Z,99.99
2017-09-16T04:49:29.529Z,99.99
2017-09-16T04:49:57.659Z,99.99
2017-09-16T04:50:25.870Z,99.99
2017-09-16T04:50:53.891Z,99.99
2017-09-16T04:51:21.717Z,99.99
2017-09-16T04:51:49.877Z,99.99
2017-09-16T04:52:17.954Z,99.99
2017-09-16T04:52:46.051Z,99.99
2017-09-16T04:53:14.100Z,99.99
2017-09-16T04:53:42.046Z,99.99
2017-09-16T04:54:10.047Z,99.99
2017-09-16T04:54:38.133Z,99.99
2017-09-16T04:55:06.212Z,99.99
2017-09-16T04:55:34.398Z,99.99
2017-09-16T04:56:02.399Z,99.99
2017-09-16T04:56:30.228Z,99.99
2017-09-16T04:56:58.231Z,99.99
2017-09-16T04:57:26.123Z,99.99
2017-09-16T04:57:54.285Z,99.99
2017-09-16T04:58:22.272Z,99.99
2017-09-16T04:58:50.257Z,99.99
2017-09-16T04:59:18.245Z,99.99
2017-09-16T04:59:46.178Z,99.99
2017-09-16T05:00:14.281Z,99.99
2017-09-16T05:00:42.389Z,99.99
2017-09-16T05:01:10.421Z,99.99
2017-09-16T05:01:38.452Z,99.99
2017-09-16T05:02:06.566Z,99.99
2017-09-16T05:02:34.566Z,99.99
2017-09-16T05:03:02.701Z,99.99
2017-09-16T05:03:30.825Z,99.99
2017-09-16T05:03:58.616Z,99.99
2017-09-16T05:04:26.610Z,99.99
2017-09-16T05:04:54.586Z,99.99
2017-09-16T05:05:22.468Z,99.99
2017-09-16T05:05:50.610Z,99.99
2017-09-16T05:06:18.460Z,99.99
2017-09-16T05:06:46.338Z,99.99
2017-09-16T05:07:14.469Z,99.99
2017-09-16T05:07:42.274Z,99.99
2017-09-16T05:08:10.072Z,99.99
2017-09-16T05:08:37.992Z,99.99
2017-09-16T05:09:06.103Z,99.99
2017-09-16T05:09:34.089Z,99.99
2017-09-16T05:10:01.977Z,99.99
2017-09-16T05:10:30.103Z,99.99
2017-09-16T05:10:58.202Z,99.99
2017-09-16T05:11:26.200Z,99.99
2017-09-16T05:11:54.041Z,99.99
2017-09-16T05:12:21.742Z,99.99
2017-09-16T05:12:49.661Z,99.99
2017-09-16T05:13:17.587Z,99.99
2017-09-16T05:13:45.600Z,99.99
2017-09-16T05:14:13.590Z,99.99
2017-09-16T05:14:41.450Z,99.99
2017-09-16T05:15:09.346Z,99.99
2017-09-16T05:15:37.341Z,99.99
2017-09-16T05:16:05.439Z,99.99
2017-09-16T05:16:33.555Z,99.99
2017-09-16T05:17:01.685Z,99.99
2017-09-16T05:17:29.800Z,99.99
2017-09-16T05:17:57.806Z,99.99
2017-09-16T05:18:25.721Z,99.99
2017-09-16T05:18:53.753Z,99.99
2017-09-16T05:19:21.677Z,99.99
2017-09-16T05:19:49.572Z,99.99
2017-09-16T05:20:17.466Z,99.99
2017-09-16T05:20:45.682Z,99.99
2017-09-16T05:21:13.772Z,99.99
2017-09-16T05:21:41.654Z,99.99
2017-09-16T05:22:09.652Z,99.99
2017-09-16T05:22:37.729Z,99.99
2017-09-16T05:23:05.635Z,99.99
2017-09-16T05:23:33.509Z,99.99
2017-09-16T05:24:01.523Z,99.99
2017-09-16T05:24:29.527Z,99.99
2017-09-16T05:24:57.540Z,99.99
2017-09-16T05:25:25.563Z,99.99
2017-09-16T05:25:53.820Z,99.99
2017-09-16T05:26:21.810Z,99.99
2017-09-16T05:26:49.810Z,99.99
2017-09-16T05:27:17.931Z,99.99
2017-09-16T05:27:46.076Z,99.99
2017-09-16T05:28:14.056Z,99.99
2017-09-16T05:28:41.861Z,99.99
2017-09-16T05:29:09.989Z,99.99
2017-09-16T05:29:37.793Z,99.99
2017-09-16T05:30:05.831Z,99.99
2017-09-16T05:30:33.963Z,99.99
2017-09-16T05:31:02.186Z,99.99
2017-09-16T05:31:30.204Z,99.99
2017-09-16T05:31:58.337Z,99.99
2017-09-16T05:32:26.382Z,99.99
2017-09-16T05:32:54.303Z,99.99
2017-09-16T05:33:22.330Z,99.99
2017-09-16T05:33:50.416Z,99.99
2017-09-16T05:34:18.559Z,99.99
2017-09-16T05:34:46.472Z,99.99
2017-09-16T05:35:14.529Z,99.99
2017-09-16T05:35:42.710Z,99.99
2017-09-16T05:36:10.535Z,99.99
2017-09-16T05:36:38.538Z,99.99
2017-09-16T05:37:06.337Z,99.99
2017-09-16T05:37:34.375Z,99.99
2017-09-16T05:38:02.386Z,99.99
2017-09-16T05:38:30.367Z,99.99
2017-09-16T05:38:58.469Z,99.99
2017-09-16T05:39:26.469Z,99.99
2017-09-16T05:39:54.565Z,99.99
2017-09-16T05:40:22.373Z,99.99
2017-09-16T05:40:50.540Z,99.99
2017-09-16T05:41:18.557Z,99.99
2017-09-16T05:41:46.677Z,99.99
2017-09-16T05:42:14.687Z,99.99
2017-09-16T05:42:42.785Z,99.99
2017-09-16T05:43:10.711Z,99.99
2017-09-16T05:43:38.725Z,99.99
2017-09-16T05:44:06.874Z,99.99
2017-09-16T05:44:34.825Z,99.99
2017-09-16T05:45:02.801Z,99.99
2017-09-16T05:45:30.603Z,99.99
2017-09-16T05:45:58.594Z,99.99
2017-09-16T05:46:26.583Z,99.99
2017-09-16T05:46:54.496Z,99.99
2017-09-16T05:47:22.398Z,99.99
2017-09-16T05:47:50.483Z,99.99
2017-09-16T05:48:18.492Z,99.99
2017-09-16T05:48:46.474Z,99.99
2017-09-16T05:49:14.398Z,99.99
2017-09-16T05:49:42.324Z,99.99
2017-09-16T05:50:10.359Z,99.99
2017-09-16T05:50:38.263Z,99.99
2017-09-16T05:51:06.303Z,99.99
2017-09-16T05:51:34.278Z,99.99
2017-09-16T05:52:02.410Z,99.99
2017-09-16T05:52:30.404Z,99.99
2017-09-16T05:52:58.385Z,99.99
2017-09-16T05:53:26.383Z,99.99
2017-09-16T05:53:54.469Z,99.99
2017-09-16T05:54:22.581Z,99.99
2017-09-16T05:54:50.583Z,99.99
2017-09-16T05:55:18.673Z,99.99
2017-09-16T05:55:46.583Z,99.99
2017-09-16T05:56:14.883Z,99.99
2017-09-16T05:56:42.980Z,99.99
2017-09-16T05:57:11.108Z,99.99
2017-09-16T05:57:39.246Z,99.99
2017-09-16T05:58:07.240Z,99.99
2017-09-16T05:58:35.245Z,99.99
2017-09-16T05:59:03.156Z,99.99
2017-09-16T05:59:30.962Z,99.99
2017-09-16T05:59:59.056Z,99.99
2017-09-16T06:00:27.158Z,99.99
2017-09-16T06:00:55.343Z,99.99
2017-09-16T06:01:23.374Z,99.99